Time;durP1;ratioP1;P1;durP2;ratioP2;P2;SDS_P1;SDS_P2;PMS_P1;PMS_P2;Temp;Humidity;BMP_temperature;BMP_pressure;BME280_temperature;BME280_humidity;BME280_pressure;Samples;Min_cycle;Max_cycle;Signal;HPM_P1;HPM_P2
2023/03/25 00:00:52;;;;;;;;;;;;;;;;;;4999571;28;19922;-81
2023/03/25 00:03:21;;;;;;;;;;;;;;;;;;5002962;28;20215;-79
2023/03/25 00:05:48;;;;;;;;;;;;;;;;;;5003794;28;19929;-79
2023/03/25 00:08:16;;;;;;;;;;;;;;;;;;5002779;28;19933;-79
2023/03/25 00:10:48;;;;;;;;;;;;;;;;;;5000099;28;19929;-80
2023/03/25 00:13:16;;;;;;;;;;;;;;;;;;5004363;28;19922;-79
2023/03/25 00:15:45;;;;;;;;;;;;;;;;;;5004740;28;19925;-80
2023/03/25 00:18:12;;;;;;;;;;;;;;;;;;5007581;28;20046;-80
2023/03/25 00:20:40;;;;;;;;;;;;;;;;;;5003265;28;19921;-79
2023/03/25 00:23:08;;;;;;;;;;;;;;;;;;5004446;28;19925;-80
2023/03/25 00:25:40;;;;;;;;;;;;;;;;;;5020645;28;19932;-81
2023/03/25 00:28:08;;;;;;;;;;;;;;;;;;5017277;28;19925;-80
2023/03/25 00:30:40;;;;;;;;;;;;;;;;;;5019618;28;19922;-79
2023/03/25 00:33:09;;;;;;;;;;;;;;;;;;5003153;28;19954;-79
2023/03/25 00:35:38;;;;;;;;;;;;;;;;;;5016558;28;19946;-79
2023/03/25 00:38:06;;;;;;;;;;;;;;;;;;5002616;28;19930;-79
2023/03/25 00:40:34;;;;;;;;;;;;;;;;;;5019561;28;19933;-80
2023/03/25 00:43:07;;;;;;;;;;;;;;;;;;5008879;28;19928;-80
2023/03/25 00:45:34;;;;;;;;;;;;;;;;;;5019479;28;20301;-80
2023/03/25 00:48:07;;;;;;;;;;;;;;;;;;5009125;28;19921;-79
2023/03/25 00:50:40;;;;;;;;;;;;;;;;;;5000609;28;20438;-79
2023/03/25 00:53:08;;;;;;;;;;;;;;;;;;5001316;28;19968;-80
2023/03/25 00:55:35;;;;;;;;;;;;;;;;;;5009515;28;19925;-79
2023/03/25 00:58:04;;;;;;;;;;;;;;;;;;5003786;28;19940;-79
2023/03/25 01:00:32;;;;;;;;;;;;;;;;;;5002738;28;19921;-80
2023/03/25 01:03:00;;;;;;;;;;;;;;;;;;5015230;28;19929;-79
2023/03/25 01:05:27;;;;;;;;;;;;;;;;;;5010231;28;20294;-79
2023/03/25 01:07:55;;;;;;;;;;;;;;;;;;5002805;28;20373;-79
2023/03/25 01:10:22;;;;;;;;;;;;;;;;;;5001502;28;20624;-79
2023/03/25 01:12:50;;;;;;;;;;;;;;;;;;5003317;28;19922;-80
2023/03/25 01:15:18;;;;;;;;;;;;;;;;;;5002510;28;19935;-79
2023/03/25 01:17:46;;;;;;;;;;;;;;;;;;4999974;28;20408;-80
2023/03/25 01:20:14;;;;;;;;;;;;;;;;;;5005213;28;19928;-79
2023/03/25 01:22:41;;;;;;;;;;;;;;;;;;5000967;28;19925;-79
2023/03/25 01:25:10;;;;;;;;;;;;;;;;;;5001721;28;19921;-79
2023/03/25 01:27:42;;;;;;;;;;;;;;;;;;4999572;28;19925;-80
2023/03/25 01:30:10;;;;;;;;;;;;;;;;;;5017035;28;19921;-80
2023/03/25 01:32:37;;;;;;;;;;;;;;;;;;5006564;28;19933;-80
2023/03/25 01:35:05;;;;;;;;;;;;;;;;;;5004246;28;19928;-79
2023/03/25 01:37:35;;;;;;;;;;;;;;;;;;5002048;28;20400;-79
2023/03/25 01:40:03;;;;;;;;;;;;;;;;;;5019273;28;19925;-79
2023/03/25 01:42:31;;;;;;;;;;;;;;;;;;5001147;28;19926;-79
2023/03/25 01:45:05;;;;;;;;;;;;;;;;;;5017292;28;20440;-80
2023/03/25 01:47:32;;;;;;;;;;;;;;;;;;5000718;28;19922;-79
2023/03/25 01:50:00;;;;;;;;;;;;;;;;;;5001551;28;19925;-79
2023/03/25 01:52:29;;;;;;;;;;;;;;;;;;5003980;28;19921;-80
2023/03/25 01:54:57;;;;;;;;;;;;;;;;;;5018556;28;19929;-79
2023/03/25 01:57:24;;;;;;;;;;;;;;;;;;5016964;28;20299;-79
2023/03/25 01:59:52;;;;;;;;;;;;;;;;;;4999639;28;19929;-79
2023/03/25 02:02:19;;;;;;;;;;;;;;;;;;5002225;28;19921;-80
2023/03/25 02:05:01;;;;;;;;;;;;;;;;;;5008603;28;19921;-79
2023/03/25 02:07:29;;;;;;;;;;;;;;;;;;5018246;28;19925;-79
2023/03/25 02:09:57;;;;;;;;;;;;;;;;;;5016043;28;19925;-79
2023/03/25 02:12:29;;;;;;;;;;;;;;;;;;5003934;28;19925;-79
2023/03/25 02:14:57;;;;;;;;;;;;;;;;;;5003901;28;20329;-79
2023/03/25 02:17:30;;;;;;;;;;;;;;;;;;5004141;28;19948;-79
2023/03/25 02:20:08;;;;;;;;;;;;;;;;;;5006562;28;20306;-78
2023/03/25 02:22:40;;;;;;;;;;;;;;;;;;5023510;28;19921;-79
2023/03/25 02:25:08;;;;;;;;;;;;;;;;;;5019568;28;20330;-80
2023/03/25 02:27:40;;;;;;;;;;;;;;;;;;5012725;28;19921;-79
2023/03/25 02:30:08;;;;;;;;;;;;;;;;;;5021749;28;19925;-79
2023/03/25 02:32:36;;;;;;;;;;;;;;;;;;5021265;28;19928;-79
2023/03/25 02:35:09;;;;;;;;;;;;;;;;;;5012911;28;19932;-79
2023/03/25 02:37:36;;;;;;;;;;;;;;;;;;5010054;28;19925;-79
2023/03/25 02:40:09;;;;;;;;;;;;;;;;;;5006651;28;19925;-79
2023/03/25 02:42:37;;;;;;;;;;;;;;;;;;5020426;28;19926;-80
2023/03/25 02:45:04;;;;;;;;;;;;;;;;;;5022358;28;19921;-79
2023/03/25 02:47:32;;;;;;;;;;;;;;;;;;5005023;28;19922;-79
2023/03/25 02:50:03;;;;;;;;;;;;;;;;;;5004186;28;19929;-79
2023/03/25 02:52:31;;;;;;;;;;;;;;;;;;5010525;28;19925;-79
2023/03/25 02:55:00;;;;;;;;;;;;;;;;;;5002524;28;20282;-80
2023/03/25 02:57:29;;;;;;;;;;;;;;;;;;5003387;28;19925;-80
2023/03/25 03:00:02;;;;;;;;;;;;;;;;;;5005094;28;19936;-80
2023/03/25 03:02:31;;;;;;;;;;;;;;;;;;5019018;28;19922;-78
2023/03/25 03:04:58;;;;;;;;;;;;;;;;;;5019052;28;19921;-79
2023/03/25 03:07:31;;;;;;;;;;;;;;;;;;5023590;28;20293;-81
2023/03/25 03:09:58;;;;;;;;;;;;;;;;;;5004879;28;19928;-79
2023/03/25 03:12:26;;;;;;;;;;;;;;;;;;5021466;28;19921;-79
2023/03/25 03:14:58;;;;;;;;;;;;;;;;;;5002843;28;19922;-80
2023/03/25 03:17:26;;;;;;;;;;;;;;;;;;5003504;28;19940;-79
2023/03/25 03:19:53;;;;;;;;;;;;;;;;;;5019246;28;19928;-79
2023/03/25 03:22:21;;;;;;;;;;;;;;;;;;5005626;28;20282;-80
2023/03/25 03:24:48;;;;;;;;;;;;;;;;;;5004914;28;19940;-80
2023/03/25 03:27:16;;;;;;;;;;;;;;;;;;5020805;28;19929;-79
2023/03/25 03:29:43;;;;;;;;;;;;;;;;;;5006796;28;19933;-79
2023/03/25 03:32:12;;;;;;;;;;;;;;;;;;5021888;28;20297;-80
2023/03/25 03:34:45;;;;;;;;;;;;;;;;;;5011484;28;20477;-80
2023/03/25 03:37:12;;;;;;;;;;;;;;;;;;5004817;28;20278;-80
2023/03/25 03:39:40;;;;;;;;;;;;;;;;;;5005000;28;19925;-79
2023/03/25 03:42:07;;;;;;;;;;;;;;;;;;5018395;28;19925;-79
2023/03/25 03:44:35;;;;;;;;;;;;;;;;;;5010307;28;19921;-80
2023/03/25 03:47:07;;;;;;;;;;;;;;;;;;5004149;28;19946;-80
2023/03/25 03:49:37;;;;;;;;;;;;;;;;;;5006524;28;20397;-79
2023/03/25 03:52:09;;;;;;;;;;;;;;;;;;5022426;28;19925;-80
2023/03/25 03:54:42;;;;;;;;;;;;;;;;;;5004004;28;19921;-80
2023/03/25 03:57:15;;;;;;;;;;;;;;;;;;5008820;28;19925;-80
2023/03/25 03:59:47;;;;;;;;;;;;;;;;;;5019180;28;19925;-79
2023/03/25 04:02:22;;;;;;;;;;;;;;;;;;5008913;28;20425;-80
2023/03/25 04:04:49;;;;;;;;;;;;;;;;;;5003778;28;19926;-79
2023/03/25 04:07:22;;;;;;;;;;;;;;;;;;5010757;28;19921;-79
2023/03/25 04:09:53;;;;;;;;;;;;;;;;;;5003804;28;19926;-81
2023/03/25 04:12:21;;;;;;;;;;;;;;;;;;5001212;28;20398;-79
2023/03/25 04:14:54;;;;;;;;;;;;;;;;;;5010098;28;20420;-80
2023/03/25 04:17:21;;;;;;;;;;;;;;;;;;5016713;28;19921;-79
2023/03/25 04:19:54;;;;;;;;;;;;;;;;;;5006370;28;19929;-79
2023/03/25 04:22:21;;;;;;;;;;;;;;;;;;5004640;28;19922;-79
2023/03/25 04:24:50;;;;;;;;;;;;;;;;;;5017869;28;20561;-79
2023/03/25 04:27:18;;;;;;;;;;;;;;;;;;5017119;28;19925;-79
2023/03/25 04:29:46;;;;;;;;;;;;;;;;;;4999894;28;20282;-79
2023/03/25 04:32:19;;;;;;;;;;;;;;;;;;5008821;28;19926;-79
2023/03/25 04:34:46;;;;;;;;;;;;;;;;;;5020449;28;19925;-80
2023/03/25 04:37:19;;;;;;;;;;;;;;;;;;5009694;28;20416;-80
2023/03/25 04:39:47;;;;;;;;;;;;;;;;;;5019627;28;20420;-79
2023/03/25 04:42:16;;;;;;;;;;;;;;;;;;4998853;28;19922;-81
2023/03/25 04:44:44;;;;;;;;;;;;;;;;;;5019151;28;19926;-79
2023/03/25 04:47:13;;;;;;;;;;;;;;;;;;5019681;28;19925;-79
2023/03/25 04:49:43;;;;;;;;;;;;;;;;;;5003182;28;19928;-79
2023/03/25 04:52:11;;;;;;;;;;;;;;;;;;5004587;28;19921;-79
2023/03/25 04:54:39;;;;;;;;;;;;;;;;;;5021265;28;20728;-80
2023/03/25 04:57:07;;;;;;;;;;;;;;;;;;5002653;28;19922;-80
2023/03/25 04:59:40;;;;;;;;;;;;;;;;;;5001277;28;19933;-79
2023/03/25 05:02:12;;;;;;;;;;;;;;;;;;5001070;28;19928;-79
2023/03/25 05:04:40;;;;;;;;;;;;;;;;;;5005465;28;19921;-79
2023/03/25 05:07:15;;;;;;;;;;;;;;;;;;5003782;28;19925;-80
2023/03/25 05:09:47;;;;;;;;;;;;;;;;;;5008591;28;19933;-79
2023/03/25 05:12:16;;;;;;;;;;;;;;;;;;5001137;28;19933;-79
2023/03/25 05:14:43;;;;;;;;;;;;;;;;;;5001858;28;19929;-79
2023/03/25 05:17:16;;;;;;;;;;;;;;;;;;5001912;28;19926;-79
2023/03/25 05:19:50;;;;;;;;;;;;;;;;;;5007420;28;19932;-79
2023/03/25 05:22:17;;;;;;;;;;;;;;;;;;5019209;28;19928;-79
2023/03/25 05:24:45;;;;;;;;;;;;;;;;;;5020443;28;19926;-79
2023/03/25 05:27:19;;;;;;;;;;;;;;;;;;5002982;28;19921;-79
2023/03/25 05:29:46;;;;;;;;;;;;;;;;;;5001810;28;19928;-79
2023/03/25 05:32:16;;;;;;;;;;;;;;;;;;5004772;28;20393;-80
2023/03/25 05:34:45;;;;;;;;;;;;;;;;;;5002695;28;19928;-79
2023/03/25 05:37:12;;;;;;;;;;;;;;;;;;5002974;28;19922;-79
2023/03/25 05:39:40;;;;;;;;;;;;;;;;;;4999843;28;20289;-79
2023/03/25 05:42:09;;;;;;;;;;;;;;;;;;5005245;28;19921;-79
2023/03/25 05:44:37;;;;;;;;;;;;;;;;;;5005008;28;19936;-79
2023/03/25 05:47:10;;;;;;;;;;;;;;;;;;5000721;28;20389;-80
2023/03/25 05:49:37;;;;;;;;;;;;;;;;;;5000291;28;19929;-80
2023/03/25 05:52:05;;;;;;;;;;;;;;;;;;5005436;28;20525;-79
2023/03/25 05:54:32;;;;;;;;;;;;;;;;;;5001280;28;19922;-80
2023/03/25 05:57:00;;;;;;;;;;;;;;;;;;5002521;28;19936;-79
2023/03/25 05:59:27;;;;;;;;;;;;;;;;;;5017927;28;19929;-79
2023/03/25 06:01:55;;;;;;;;;;;;;;;;;;5015696;28;19922;-80
2023/03/25 06:04:27;;;;;;;;;;;;;;;;;;5004454;28;19922;-79
2023/03/25 06:06:55;;;;;;;;;;;;;;;;;;5001307;28;19926;-79
2023/03/25 06:09:29;;;;;;;;;;;;;;;;;;4999507;28;19929;-79
2023/03/25 06:11:57;;;;;;;;;;;;;;;;;;5016285;28;19937;-79
2023/03/25 06:14:24;;;;;;;;;;;;;;;;;;5000619;28;19922;-80
2023/03/25 06:16:52;;;;;;;;;;;;;;;;;;4998947;28;19929;-79
2023/03/25 06:19:25;;;;;;;;;;;;;;;;;;4999696;28;20385;-79
2023/03/25 06:21:53;;;;;;;;;;;;;;;;;;5017220;28;19932;-79
2023/03/25 06:24:21;;;;;;;;;;;;;;;;;;5001307;28;19933;-79
2023/03/25 06:26:48;;;;;;;;;;;;;;;;;;5000925;28;19933;-79
2023/03/25 06:29:16;;;;;;;;;;;;;;;;;;5015072;28;19925;-79
2023/03/25 06:31:43;;;;;;;;;;;;;;;;;;5001801;28;19921;-80
2023/03/25 06:34:11;;;;;;;;;;;;;;;;;;5002176;28;19925;-80
2023/03/25 06:36:43;;;;;;;;;;;;;;;;;;5002205;28;19929;-80
2023/03/25 06:39:16;;;;;;;;;;;;;;;;;;5002263;28;19925;-79
2023/03/25 06:41:44;;;;;;;;;;;;;;;;;;5000126;28;19945;-80
2023/03/25 06:44:20;;;;;;;;;;;;;;;;;;5014935;28;19932;-79
2023/03/25 06:47:08;;;;;;;;;;;;;;;;;;5000413;28;19929;-79
2023/03/25 06:49:42;;;;;;;;;;;;;;;;;;5016629;28;19932;-79
2023/03/25 06:52:10;;;;;;;;;;;;;;;;;;5014303;28;20378;-79
2023/03/25 06:54:38;;;;;;;;;;;;;;;;;;4999935;28;20294;-79
2023/03/25 06:57:10;;;;;;;;;;;;;;;;;;5005925;28;19929;-79
2023/03/25 06:59:38;;;;;;;;;;;;;;;;;;5002919;28;20548;-79
2023/03/25 07:02:05;;;;;;;;;;;;;;;;;;5004339;28;20338;-80
2023/03/25 07:04:33;;;;;;;;;;;;;;;;;;5021367;28;19976;-80
2023/03/25 07:07:05;;;;;;;;;;;;;;;;;;5003477;28;20373;-79
2023/03/25 07:09:33;;;;;;;;;;;;;;;;;;5001173;28;20366;-80
2023/03/25 07:12:00;;;;;;;;;;;;;;;;;;5020010;28;19999;-80
2023/03/25 07:14:28;;;;;;;;;;;;;;;;;;5018698;28;19925;-81
2023/03/25 07:16:55;;;;;;;;;;;;;;;;;;5005671;28;19940;-79
2023/03/25 07:19:23;;;;;;;;;;;;;;;;;;5004482;28;19940;-79
2023/03/25 07:21:50;;;;;;;;;;;;;;;;;;5018253;28;19940;-80
2023/03/25 07:24:23;;;;;;;;;;;;;;;;;;5003334;28;19926;-79
2023/03/25 07:26:52;;;;;;;;;;;;;;;;;;5017459;28;20377;-80
2023/03/25 07:29:22;;;;;;;;;;;;;;;;;;5017696;28;19925;-79
2023/03/25 07:31:50;;;;;;;;;;;;;;;;;;5021429;28;19921;-81
2023/03/25 07:34:17;;;;;;;;;;;;;;;;;;5004190;28;19929;-79
2023/03/25 07:36:45;;;;;;;;;;;;;;;;;;5004000;28;20377;-79
2023/03/25 07:39:12;;;;;;;;;;;;;;;;;;5019000;28;19928;-80
2023/03/25 07:41:41;;;;;;;;;;;;;;;;;;5002619;28;20390;-79
2023/03/25 07:44:40;;;;;;;;;;;;;;;;;;5003151;28;19922;-80
2023/03/25 07:47:08;;;;;;;;;;;;;;;;;;5005272;28;20394;-80
2023/03/25 07:49:40;;;;;;;;;;;;;;;;;;5004903;28;20337;-79
2023/03/25 07:52:08;;;;;;;;;;;;;;;;;;5004585;28;20294;-79
2023/03/25 07:54:37;;;;;;;;;;;;;;;;;;5002103;28;19925;-79
2023/03/25 07:57:04;;;;;;;;;;;;;;;;;;5003218;28;19921;-79
2023/03/25 07:59:37;;;;;;;;;;;;;;;;;;5008261;28;19967;-80
2023/03/25 08:02:04;;;;;;;;;;;;;;;;;;5003895;28;19929;-79
2023/03/25 08:04:37;;;;;;;;;;;;;;;;;;5003976;28;19921;-80
2023/03/25 08:07:05;;;;;;;;;;;;;;;;;;5019365;28;19928;-79
2023/03/25 08:09:32;;;;;;;;;;;;;;;;;;5006853;28;19926;-79
2023/03/25 08:12:00;;;;;;;;;;;;;;;;;;5017030;28;20305;-80
2023/03/25 08:14:28;;;;;;;;;;;;;;;;;;5004297;28;19932;-79
2023/03/25 08:16:55;;;;;;;;;;;;;;;;;;5017983;28;19921;-79
2023/03/25 08:19:23;;;;;;;;;;;;;;;;;;5003649;28;19926;-79
2023/03/25 08:21:55;;;;;;;;;;;;;;;;;;5017606;28;19922;-79
2023/03/25 08:24:25;;;;;;;;;;;;;;;;;;5004292;28;19921;-80
2023/03/25 08:26:53;;;;;;;;;;;;;;;;;;5014938;28;19925;-79
2023/03/25 08:29:26;;;;;;;;;;;;;;;;;;5008880;28;19929;-80
2023/03/25 08:31:59;;;;;;;;;;;;;;;;;;5016160;28;20285;-79
2023/03/25 08:34:33;;;;;;;;;;;;;;;;;;5005950;28;19937;-80
2023/03/25 08:37:01;;;;;;;;;;;;;;;;;;5004474;28;19932;-80
2023/03/25 08:39:35;;;;;;;;;;;;;;;;;;5006020;28;19929;-78
2023/03/25 08:42:03;;;;;;;;;;;;;;;;;;5001088;28;19926;-79
2023/03/25 08:44:30;;;;;;;;;;;;;;;;;;5015438;28;19921;-79
2023/03/25 08:46:58;;;;;;;;;;;;;;;;;;5015793;28;19936;-79
2023/03/25 08:49:26;;;;;;;;;;;;;;;;;;5000468;28;19929;-82
2023/03/25 08:51:59;;;;;;;;;;;;;;;;;;4955442;28;19929;-80
2023/03/25 08:54:32;;;;;;;;;;;;;;;;;;5002626;28;19929;-80
2023/03/25 08:56:59;;;;;;;;;;;;;;;;;;4980870;28;19936;-80
2023/03/25 08:59:27;;;;;;;;;;;;;;;;;;4967934;28;19929;-80
2023/03/25 09:01:55;;;;;;;;;;;;;;;;;;4971952;28;20582;-80
2023/03/25 09:04:22;;;;;;;;;;;;;;;;;;4979423;28;19933;-80
2023/03/25 09:06:50;;;;;;;;;;;;;;;;;;4972631;28;19937;-82
2023/03/25 09:09:17;;;;;;;;;;;;;;;;;;4981339;28;19921;-84
2023/03/25 09:11:45;;;;;;;;;;;;;;;;;;4976901;28;20305;-80
2023/03/25 09:14:19;;;;;;;;;;;;;;;;;;4986160;28;20536;-82
2023/03/25 09:16:46;;;;;;;;;;;;;;;;;;5002736;28;20807;-79
2023/03/25 09:19:16;;;;;;;;;;;;;;;;;;4973862;28;19956;-80
2023/03/25 09:21:43;;;;;;;;;;;;;;;;;;4996462;28;19940;-81
2023/03/25 09:24:12;;;;;;;;;;;;;;;;;;4976972;28;19929;-80
2023/03/25 09:26:40;;;;;;;;;;;;;;;;;;4980829;28;19921;-80
2023/03/25 09:29:07;;;;;;;;;;;;;;;;;;4999864;28;20293;-80
2023/03/25 09:31:35;;;;;;;;;;;;;;;;;;5001447;28;19933;-79
2023/03/25 09:34:03;;;;;;;;;;;;;;;;;;5016659;28;19929;-79
2023/03/25 09:36:30;;;;;;;;;;;;;;;;;;4998864;28;20810;-80
2023/03/25 09:38:58;;;;;;;;;;;;;;;;;;5013091;28;20853;-78
2023/03/25 09:41:31;;;;;;;;;;;;;;;;;;5001481;28;20370;-79
2023/03/25 09:44:03;;;;;;;;;;;;;;;;;;5002996;28;20733;-80
2023/03/25 09:46:36;;;;;;;;;;;;;;;;;;4998797;28;19943;-80
2023/03/25 09:49:03;;;;;;;;;;;;;;;;;;5002639;28;19968;-80
2023/03/25 09:51:31;;;;;;;;;;;;;;;;;;5005850;28;20413;-80
2023/03/25 09:53:59;;;;;;;;;;;;;;;;;;5017768;28;19921;-79
2023/03/25 09:56:27;;;;;;;;;;;;;;;;;;5015851;28;19921;-80
2023/03/25 09:59:00;;;;;;;;;;;;;;;;;;5006168;28;20573;-78
2023/03/25 10:01:27;;;;;;;;;;;;;;;;;;5015662;28;19932;-78
2023/03/25 10:03:55;;;;;;;;;;;;;;;;;;5015358;28;19925;-78
2023/03/25 10:06:28;;;;;;;;;;;;;;;;;;5015765;28;19932;-79
2023/03/25 10:08:55;;;;;;;;;;;;;;;;;;5013282;28;19926;-81
2023/03/25 10:11:23;;;;;;;;;;;;;;;;;;5006992;28;19925;-78
2023/03/25 10:13:51;;;;;;;;;;;;;;;;;;5000300;28;20376;-79
2023/03/25 10:16:18;;;;;;;;;;;;;;;;;;5012563;28;19928;-79
2023/03/25 10:18:46;;;;;;;;;;;;;;;;;;5016624;28;20369;-79
2023/03/25 10:21:14;;;;;;;;;;;;;;;;;;4999770;28;19929;-79
2023/03/25 10:23:41;;;;;;;;;;;;;;;;;;4998603;28;20286;-79
2023/03/25 10:26:09;;;;;;;;;;;;;;;;;;4999394;28;19925;-78
2023/03/25 10:28:43;;;;;;;;;;;;;;;;;;5012951;28;20417;-81
2023/03/25 10:31:10;;;;;;;;;;;;;;;;;;5001937;28;19932;-78
2023/03/25 10:33:43;;;;;;;;;;;;;;;;;;4998898;28;19930;-79
2023/03/25 10:36:10;;;;;;;;;;;;;;;;;;5001722;28;19922;-79
2023/03/25 10:38:38;;;;;;;;;;;;;;;;;;5004680;28;20286;-80
2023/03/25 10:41:05;;;;;;;;;;;;;;;;;;5004100;28;19922;-79
2023/03/25 10:43:38;;;;;;;;;;;;;;;;;;5005218;28;19976;-79
2023/03/25 10:46:05;;;;;;;;;;;;;;;;;;5018683;28;19948;-79
2023/03/25 10:48:38;;;;;;;;;;;;;;;;;;5003335;28;20313;-78
2023/03/25 10:51:10;;;;;;;;;;;;;;;;;;5006329;28;19922;-79
2023/03/25 10:53:38;;;;;;;;;;;;;;;;;;5006004;28;19925;-79
2023/03/25 10:56:06;;;;;;;;;;;;;;;;;;5021873;28;19921;-79
2023/03/25 10:58:38;;;;;;;;;;;;;;;;;;5009846;28;19932;-80
2023/03/25 11:01:11;;;;;;;;;;;;;;;;;;5002314;28;19921;-79
2023/03/25 11:03:39;;;;;;;;;;;;;;;;;;5015656;28;20263;-80
2023/03/25 11:06:07;;;;;;;;;;;;;;;;;;4999841;28;19921;-79
2023/03/25 11:08:39;;;;;;;;;;;;;;;;;;4973826;28;19928;-80
2023/03/25 11:11:07;;;;;;;;;;;;;;;;;;5002140;28;19930;-78
2023/03/25 11:13:35;;;;;;;;;;;;;;;;;;4979769;28;19929;-80
2023/03/25 11:16:02;;;;;;;;;;;;;;;;;;4975946;28;20737;-79
2023/03/25 11:18:30;;;;;;;;;;;;;;;;;;4980582;28;20514;-79
2023/03/25 11:21:02;;;;;;;;;;;;;;;;;;4977762;28;19926;-80
2023/03/25 11:23:30;;;;;;;;;;;;;;;;;;4979686;28;19968;-81
2023/03/25 11:26:02;;;;;;;;;;;;;;;;;;4990005;28;20668;-79
2023/03/25 11:28:36;;;;;;;;;;;;;;;;;;5001510;28;19921;-79
2023/03/25 11:31:08;;;;;;;;;;;;;;;;;;5018815;28;19921;-80
2023/03/25 11:33:36;;;;;;;;;;;;;;;;;;5003405;28;19925;-79
2023/03/25 11:36:04;;;;;;;;;;;;;;;;;;5020429;28;19926;-78
2023/03/25 11:38:33;;;;;;;;;;;;;;;;;;5003837;28;20373;-79
2023/03/25 11:41:00;;;;;;;;;;;;;;;;;;5003995;28;20401;-80
2023/03/25 11:43:28;;;;;;;;;;;;;;;;;;5010101;28;19926;-78
2023/03/25 11:45:55;;;;;;;;;;;;;;;;;;5009559;28;19922;-78
2023/03/25 11:48:26;;;;;;;;;;;;;;;;;;5010312;28;20012;-80
2023/03/25 11:50:53;;;;;;;;;;;;;;;;;;5004028;28;19948;-79
2023/03/25 11:53:21;;;;;;;;;;;;;;;;;;5004819;28;19959;-78
2023/03/25 11:55:48;;;;;;;;;;;;;;;;;;5005469;28;19925;-79
2023/03/25 11:58:16;;;;;;;;;;;;;;;;;;5018801;28;19925;-78
2023/03/25 12:00:44;;;;;;;;;;;;;;;;;;5002982;28;19948;-78
2023/03/25 12:03:12;;;;;;;;;;;;;;;;;;5006077;28;19944;-79
2023/03/25 12:05:39;;;;;;;;;;;;;;;;;;5003330;28;19949;-78
2023/03/25 12:08:07;;;;;;;;;;;;;;;;;;5002853;28;19944;-78
2023/03/25 12:10:34;;;;;;;;;;;;;;;;;;5001078;28;19980;-78
2023/03/25 12:13:02;;;;;;;;;;;;;;;;;;5002164;28;19928;-78
2023/03/25 12:15:29;;;;;;;;;;;;;;;;;;5004498;28;19925;-79
2023/03/25 12:17:57;;;;;;;;;;;;;;;;;;5009014;28;19922;-77
2023/03/25 12:20:24;;;;;;;;;;;;;;;;;;5008906;28;19938;-79
2023/03/25 12:22:57;;;;;;;;;;;;;;;;;;5019727;28;19922;-78
2023/03/25 12:25:26;;;;;;;;;;;;;;;;;;5002682;28;19928;-79
2023/03/25 12:27:59;;;;;;;;;;;;;;;;;;5010794;28;19933;-78
2023/03/25 12:30:31;;;;;;;;;;;;;;;;;;5005600;28;19921;-79
2023/03/25 12:32:59;;;;;;;;;;;;;;;;;;5014239;28;19926;-79
2023/03/25 12:35:31;;;;;;;;;;;;;;;;;;5008805;28;19929;-79
2023/03/25 12:38:04;;;;;;;;;;;;;;;;;;5009773;28;19929;-79
2023/03/25 12:40:32;;;;;;;;;;;;;;;;;;5006439;28;19945;-78
2023/03/25 12:43:05;;;;;;;;;;;;;;;;;;5008859;28;19929;-79
2023/03/25 12:45:32;;;;;;;;;;;;;;;;;;5003074;28;19989;-78
2023/03/25 12:48:04;;;;;;;;;;;;;;;;;;5009508;28;19925;-78
2023/03/25 12:50:32;;;;;;;;;;;;;;;;;;5016467;28;19921;-78
2023/03/25 12:53:00;;;;;;;;;;;;;;;;;;5003570;28;20262;-79
2023/03/25 12:55:27;;;;;;;;;;;;;;;;;;5019108;28;19921;-78
2023/03/25 12:57:55;;;;;;;;;;;;;;;;;;4999910;28;20408;-79
2023/03/25 13:00:24;;;;;;;;;;;;;;;;;;5002810;28;19932;-79
2023/03/25 13:02:57;;;;;;;;;;;;;;;;;;5017813;28;19928;-79
2023/03/25 13:05:25;;;;;;;;;;;;;;;;;;5017967;28;19950;-78
2023/03/25 13:07:52;;;;;;;;;;;;;;;;;;5018959;28;19925;-79
2023/03/25 13:10:25;;;;;;;;;;;;;;;;;;5009347;28;19929;-79
2023/03/25 13:12:53;;;;;;;;;;;;;;;;;;5007900;28;19925;-79
2023/03/25 13:15:25;;;;;;;;;;;;;;;;;;5005510;28;19929;-78
2023/03/25 13:17:56;;;;;;;;;;;;;;;;;;5008129;28;19922;-79
2023/03/25 13:20:29;;;;;;;;;;;;;;;;;;5002944;28;19925;-78
2023/03/25 13:23:02;;;;;;;;;;;;;;;;;;5018421;28;19921;-78
2023/03/25 13:25:30;;;;;;;;;;;;;;;;;;5009262;28;19928;-79
2023/03/25 13:28:03;;;;;;;;;;;;;;;;;;5001913;28;19921;-79
2023/03/25 13:30:31;;;;;;;;;;;;;;;;;;5002795;28;19921;-79
2023/03/25 13:33:04;;;;;;;;;;;;;;;;;;5001396;28;19932;-80
2023/03/25 13:35:32;;;;;;;;;;;;;;;;;;5006738;28;19925;-79
2023/03/25 13:37:59;;;;;;;;;;;;;;;;;;5002467;28;19926;-78
2023/03/25 13:40:27;;;;;;;;;;;;;;;;;;5004471;28;20474;-79
2023/03/25 13:42:55;;;;;;;;;;;;;;;;;;4999168;28;19932;-79
2023/03/25 13:45:27;;;;;;;;;;;;;;;;;;5017763;28;19933;-78
2023/03/25 13:47:55;;;;;;;;;;;;;;;;;;5002275;28;19926;-79
2023/03/25 13:50:23;;;;;;;;;;;;;;;;;;5001964;28;20273;-79
2023/03/25 13:52:55;;;;;;;;;;;;;;;;;;5004370;28;19936;-79
2023/03/25 13:55:28;;;;;;;;;;;;;;;;;;5001421;28;20129;-79
2023/03/25 14:01:30;;;;;;;;;;;;;;;;;;5002173;28;19920;-78
2023/03/25 14:04:16;;;;;;;;;;;;;;;;;;5000307;28;19925;-79
2023/03/25 14:06:49;;;;;;;;;;;;;;;;;;5016892;28;19922;-79
2023/03/25 14:09:17;;;;;;;;;;;;;;;;;;5001175;28;20453;-79
2023/03/25 14:11:49;;;;;;;;;;;;;;;;;;5002701;28;19925;-78
2023/03/25 14:14:17;;;;;;;;;;;;;;;;;;5004658;28;19928;-79
2023/03/25 14:16:44;;;;;;;;;;;;;;;;;;5024231;28;19925;-78
2023/03/25 14:19:17;;;;;;;;;;;;;;;;;;5019267;28;20277;-79
2023/03/25 14:21:44;;;;;;;;;;;;;;;;;;5006603;28;19932;-79
2023/03/25 14:24:17;;;;;;;;;;;;;;;;;;5018981;28;19921;-79
2023/03/25 14:26:45;;;;;;;;;;;;;;;;;;5020842;28;19926;-79
2023/03/25 14:29:12;;;;;;;;;;;;;;;;;;5006885;28;20290;-78
2023/03/25 14:31:40;;;;;;;;;;;;;;;;;;5007993;28;20374;-80
2023/03/25 14:34:07;;;;;;;;;;;;;;;;;;5009268;28;19921;-79
2023/03/25 14:36:35;;;;;;;;;;;;;;;;;;5002617;28;19929;-78
2023/03/25 14:39:05;;;;;;;;;;;;;;;;;;5006361;28;19925;-79
2023/03/25 14:41:33;;;;;;;;;;;;;;;;;;5004926;28;19921;-80
2023/03/25 14:44:05;;;;;;;;;;;;;;;;;;5013461;28;19925;-79
2023/03/25 14:46:33;;;;;;;;;;;;;;;;;;5007690;28;19928;-80
2023/03/25 14:49:06;;;;;;;;;;;;;;;;;;5004190;28;19925;-79
2023/03/25 14:51:33;;;;;;;;;;;;;;;;;;5003460;28;19929;-79
2023/03/25 14:54:01;;;;;;;;;;;;;;;;;;5007538;28;19925;-78
2023/03/25 14:56:33;;;;;;;;;;;;;;;;;;5003813;28;20289;-78
2023/03/25 14:59:09;;;;;;;;;;;;;;;;;;5004894;28;20378;-77
2023/03/25 15:01:41;;;;;;;;;;;;;;;;;;5002920;28;19921;-78
2023/03/25 15:04:10;;;;;;;;;;;;;;;;;;5007549;28;19929;-78
2023/03/25 15:06:43;;;;;;;;;;;;;;;;;;5019409;28;19928;-78
2023/03/25 15:09:11;;;;;;;;;;;;;;;;;;5006931;28;19925;-78
2023/03/25 15:11:38;;;;;;;;;;;;;;;;;;5004547;28;19922;-78
2023/03/25 15:14:11;;;;;;;;;;;;;;;;;;5020818;28;19928;-78
2023/03/25 15:16:44;;;;;;;;;;;;;;;;;;5004093;28;20281;-78
2023/03/25 15:19:11;;;;;;;;;;;;;;;;;;5005941;28;19922;-78
2023/03/25 15:21:41;;;;;;;;;;;;;;;;;;5007545;28;19921;-77
2023/03/25 15:24:09;;;;;;;;;;;;;;;;;;5003148;28;19929;-78
2023/03/25 15:26:37;;;;;;;;;;;;;;;;;;5006109;28;19951;-79
2023/03/25 15:29:05;;;;;;;;;;;;;;;;;;5002422;28;19930;-79
2023/03/25 15:31:39;;;;;;;;;;;;;;;;;;5008095;28;19921;-79
2023/03/25 15:34:07;;;;;;;;;;;;;;;;;;4991238;28;19921;-79
2023/03/25 15:36:37;;;;;;;;;;;;;;;;;;5012816;28;19928;-82
2023/03/25 15:39:05;;;;;;;;;;;;;;;;;;5002775;28;20290;-80
2023/03/25 15:41:38;;;;;;;;;;;;;;;;;;5004000;28;19921;-79
2023/03/25 15:44:05;;;;;;;;;;;;;;;;;;5003970;28;19949;-80
2023/03/25 15:46:38;;;;;;;;;;;;;;;;;;5004881;28;19928;-79
2023/03/25 15:49:10;;;;;;;;;;;;;;;;;;5002852;28;19933;-80
2023/03/25 15:51:38;;;;;;;;;;;;;;;;;;5000624;28;19926;-80
2023/03/25 15:54:05;;;;;;;;;;;;;;;;;;5003326;28;19936;-80
2023/03/25 15:56:38;;;;;;;;;;;;;;;;;;4976929;28;19929;-79
2023/03/25 15:59:06;;;;;;;;;;;;;;;;;;4981943;28;19936;-79
2023/03/25 16:01:33;;;;;;;;;;;;;;;;;;4977373;28;19930;-79
2023/03/25 16:04:01;;;;;;;;;;;;;;;;;;4977778;28;19949;-80
2023/03/25 16:06:28;;;;;;;;;;;;;;;;;;4974450;28;20919;-79
2023/03/25 16:08:56;;;;;;;;;;;;;;;;;;4977054;28;19932;-80
2023/03/25 16:11:24;;;;;;;;;;;;;;;;;;4976175;28;19929;-80
2023/03/25 16:13:56;;;;;;;;;;;;;;;;;;4973657;28;19930;-79
2023/03/25 16:16:24;;;;;;;;;;;;;;;;;;4974154;28;19930;-80
2023/03/25 16:18:53;;;;;;;;;;;;;;;;;;4976873;28;19930;-80
2023/03/25 16:21:21;;;;;;;;;;;;;;;;;;4972495;28;19940;-80
2023/03/25 16:23:48;;;;;;;;;;;;;;;;;;4975262;28;19929;-80
2023/03/25 16:26:16;;;;;;;;;;;;;;;;;;4977233;28;19952;-80
2023/03/25 16:28:43;;;;;;;;;;;;;;;;;;4976641;28;19921;-80
2023/03/25 16:31:16;;;;;;;;;;;;;;;;;;4975801;28;19932;-79
2023/03/25 16:33:48;;;;;;;;;;;;;;;;;;4979224;28;20514;-79
2023/03/25 16:36:16;;;;;;;;;;;;;;;;;;4975610;28;19933;-80
2023/03/25 16:38:44;;;;;;;;;;;;;;;;;;4974883;28;19929;-80
2023/03/25 16:41:16;;;;;;;;;;;;;;;;;;4972777;28;19936;-80
2023/03/25 16:43:44;;;;;;;;;;;;;;;;;;4970781;28;19926;-79
2023/03/25 16:46:11;;;;;;;;;;;;;;;;;;4994656;28;19925;-79
2023/03/25 16:48:39;;;;;;;;;;;;;;;;;;4981896;28;19933;-80
2023/03/25 16:51:07;;;;;;;;;;;;;;;;;;4991810;28;19929;-80
2023/03/25 16:53:35;;;;;;;;;;;;;;;;;;4975617;28;20601;-80
2023/03/25 16:56:08;;;;;;;;;;;;;;;;;;4963662;28;19929;-80
2023/03/25 16:58:36;;;;;;;;;;;;;;;;;;4975897;28;19929;-79
2023/03/25 17:01:04;;;;;;;;;;;;;;;;;;4974021;28;20329;-80
2023/03/25 17:03:31;;;;;;;;;;;;;;;;;;5002067;28;19929;-80